Time;durP1;ratioP1;P1;durP2;ratioP2;P2;SDS_P1;SDS_P2;PMS_P1;PMS_P2;Temp;Humidity;BMP_temperature;BMP_pressure;BME280_temperature;BME280_humidity;BME280_pressure;Samples;Min_cycle;Max_cycle;Signal;HPM_P1;HPM_P2
2024/03/09 00:01:09;;;;;;;6.38;4.05;;;;;;;;;;5070661;28;20587;-62
2024/03/09 00:03:37;;;;;;;11.55;5.00;;;;;;;;;;5056335;28;20106;-59
2024/03/09 00:06:08;;;;;;;8.27;4.70;;;;;;;;;;5069918;28;20090;-60
2024/03/09 00:08:38;;;;;;;9.48;4.90;;;;;;;;;;5071395;28;20515;-62
2024/03/09 00:11:07;;;;;;;6.63;4.13;;;;;;;;;;5084648;28;20119;-64
2024/03/09 00:13:37;;;;;;;8.02;4.85;;;;;;;;;;5075205;28;20559;-60
2024/03/09 00:16:08;;;;;;;6.63;4.00;;;;;;;;;;5061080;28;20063;-59
2024/03/09 00:18:37;;;;;;;7.68;4.32;;;;;;;;;;5074791;28;20047;-62
2024/03/09 00:21:12;;;;;;;7.13;4.30;;;;;;;;;;5050040;28;20123;-61
2024/03/09 00:23:41;;;;;;;7.78;4.93;;;;;;;;;;5061072;28;20049;-62
2024/03/09 00:26:10;;;;;;;9.20;4.25;;;;;;;;;;5056783;28;20052;-60
2024/03/09 00:28:40;;;;;;;10.00;4.47;;;;;;;;;;5062893;28;20036;-59
2024/03/09 00:31:11;;;;;;;6.45;3.92;;;;;;;;;;5069560;28;20557;-60
2024/03/09 00:33:42;;;;;;;6.85;3.80;;;;;;;;;;5074999;28;20060;-65
2024/03/09 00:36:11;;;;;;;9.70;4.55;;;;;;;;;;5072453;28;20040;-59
2024/03/09 00:38:43;;;;;;;10.52;4.68;;;;;;;;;;5081514;28;20572;-64
2024/03/09 00:41:13;;;;;;;9.10;4.70;;;;;;;;;;5050783;28;20076;-59
2024/03/09 00:43:46;;;;;;;8.35;4.22;;;;;;;;;;5050893;28;20041;-60
2024/03/09 00:46:14;;;;;;;6.80;3.72;;;;;;;;;;5047133;28;20115;-62
2024/03/09 00:48:43;;;;;;;7.30;4.13;;;;;;;;;;5053803;28;20048;-60
2024/03/09 00:51:12;;;;;;;8.95;4.45;;;;;;;;;;5067239;28;20040;-59
2024/03/09 00:53:41;;;;;;;7.90;4.57;;;;;;;;;;5070224;28;20041;-59
2024/03/09 00:56:09;;;;;;;7.55;3.97;;;;;;;;;;5069222;28;20048;-61
2024/03/09 00:58:39;;;;;;;5.97;3.95;;;;;;;;;;5067048;28;20041;-62
2024/03/09 01:01:08;;;;;;;8.27;4.13;;;;;;;;;;5046850;28;20060;-60
2024/03/09 01:03:38;;;;;;;7.63;4.90;;;;;;;;;;5047801;28;20510;-61
2024/03/09 01:06:07;;;;;;;8.35;4.40;;;;;;;;;;5042788;28;20044;-59
2024/03/09 01:08:36;;;;;;;7.13;3.83;;;;;;;;;;5050926;28;20620;-59
2024/03/09 01:11:05;;;;;;;6.90;4.13;;;;;;;;;;5064218;28;20052;-59
2024/03/09 01:13:34;;;;;;;8.43;3.90;;;;;;;;;;5068005;28;20044;-61
2024/03/09 01:16:03;;;;;;;7.53;4.40;;;;;;;;;;5069384;28;20051;-59
2024/03/09 01:18:33;;;;;;;6.40;4.25;;;;;;;;;;5070080;28;20053;-59
2024/03/09 01:21:01;;;;;;;6.70;3.83;;;;;;;;;;5044075;28;20049;-60
2024/03/09 01:23:30;;;;;;;8.65;4.18;;;;;;;;;;5051762;28;20210;-64
2024/03/09 01:25:59;;;;;;;10.45;5.07;;;;;;;;;;5043294;28;20053;-60
2024/03/09 01:28:28;;;;;;;7.95;4.22;;;;;;;;;;5058166;28;20056;-58
2024/03/09 01:30:57;;;;;;;6.95;4.60;;;;;;;;;;5042988;28;20045;-59
2024/03/09 01:33:26;;;;;;;6.97;4.15;;;;;;;;;;5061205;28;20068;-61
2024/03/09 01:35:55;;;;;;;9.27;4.10;;;;;;;;;;5040108;28;20052;-62
2024/03/09 01:38:24;;;;;;;8.27;4.53;;;;;;;;;;5061245;28;20068;-59
2024/03/09 01:40:52;;;;;;;6.90;3.90;;;;;;;;;;5044306;28;20053;-60
2024/03/09 01:43:21;;;;;;;6.82;3.90;;;;;;;;;;5056565;28;20486;-61
2024/03/09 01:45:49;;;;;;;8.25;4.43;;;;;;;;;;5047133;28;20103;-60
2024/03/09 01:48:20;;;;;;;7.50;4.18;;;;;;;;;;5043713;28;20051;-61
2024/03/09 01:50:48;;;;;;;6.97;4.18;;;;;;;;;;5038902;28;20080;-59
2024/03/09 01:53:19;;;;;;;6.75;4.28;;;;;;;;;;5039170;28;20111;-59
2024/03/09 01:55:49;;;;;;;7.88;4.35;;;;;;;;;;5039962;28;20099;-58
2024/03/09 01:58:19;;;;;;;7.25;4.32;;;;;;;;;;5045528;28;20058;-60
2024/03/09 02:00:54;;;;;;;7.65;4.22;;;;;;;;;;5044951;28;20057;-62
2024/03/09 02:03:23;;;;;;;8.18;4.30;;;;;;;;;;5045026;28;20120;-59
2024/03/09 02:05:54;;;;;;;6.13;4.35;;;;;;;;;;5043857;28;20568;-60
2024/03/09 02:08:24;;;;;;;6.60;4.15;;;;;;;;;;5041177;28;20056;-60
2024/03/09 02:10:53;;;;;;;6.05;4.30;;;;;;;;;;5038419;28;20041;-59
2024/03/09 02:13:23;;;;;;;6.20;3.90;;;;;;;;;;5030114;28;20048;-62
2024/03/09 02:15:52;;;;;;;6.80;4.20;;;;;;;;;;5029440;28;20410;-59
2024/03/09 02:18:23;;;;;;;10.32;4.53;;;;;;;;;;5036207;28;20485;-59
2024/03/09 02:20:51;;;;;;;6.85;4.15;;;;;;;;;;5039481;28;20115;-62
2024/03/09 02:23:21;;;;;;;7.40;4.40;;;;;;;;;;5043028;28;20387;-62
2024/03/09 02:25:51;;;;;;;8.40;4.00;;;;;;;;;;5044245;28;20067;-59
2024/03/09 02:28:19;;;;;;;7.25;4.28;;;;;;;;;;5045850;28;20055;-59
2024/03/09 02:30:49;;;;;;;8.52;4.15;;;;;;;;;;5044935;28;20168;-60
2024/03/09 02:33:18;;;;;;;8.13;4.30;;;;;;;;;;5046588;28;20102;-59
2024/03/09 02:35:47;;;;;;;8.15;4.93;;;;;;;;;;5037990;28;20409;-60
2024/03/09 02:38:15;;;;;;;8.55;4.45;;;;;;;;;;5046325;28;20056;-61
2024/03/09 02:40:43;;;;;;;9.13;4.47;;;;;;;;;;5041051;28;20052;-60
2024/03/09 02:43:13;;;;;;;6.65;3.88;;;;;;;;;;5054211;28;20467;-58
2024/03/09 02:45:42;;;;;;;6.38;3.80;;;;;;;;;;5049746;28;20088;-58
2024/03/09 02:48:11;;;;;;;9.57;5.35;;;;;;;;;;5048957;28;20048;-60
2024/03/09 02:50:40;;;;;;;9.75;4.47;;;;;;;;;;5061355;28;20048;-64
2024/03/09 02:53:08;;;;;;;7.93;4.82;;;;;;;;;;5059905;28;20489;-59
2024/03/09 02:55:37;;;;;;;7.50;3.95;;;;;;;;;;5064772;28;20044;-59
2024/03/09 02:58:05;;;;;;;9.25;4.20;;;;;;;;;;5068577;28;20102;-60
2024/03/09 03:00:36;;;;;;;8.85;4.63;;;;;;;;;;5057943;28;20505;-61
2024/03/09 03:05:52;;;;;;;7.72;4.00;;;;;;;;;;5052254;28;20041;-62
2024/03/09 03:08:21;;;;;;;8.27;4.63;;;;;;;;;;5058524;28;20072;-59
2024/03/09 03:10:50;;;;;;;9.63;4.82;;;;;;;;;;5041659;28;20045;-60
2024/03/09 03:13:18;;;;;;;7.50;4.60;;;;;;;;;;5047612;28;20049;-60
2024/03/09 03:15:48;;;;;;;7.40;4.10;;;;;;;;;;5044868;28;20041;-60
2024/03/09 03:18:19;;;;;;;7.38;4.07;;;;;;;;;;5044952;28;20425;-60
2024/03/09 03:20:47;;;;;;;7.30;4.22;;;;;;;;;;5056982;28;20072;-59
2024/03/09 03:23:16;;;;;;;7.63;4.10;;;;;;;;;;5059439;28;20049;-59
2024/03/09 03:25:45;;;;;;;5.32;3.78;;;;;;;;;;5054343;28;20131;-61
2024/03/09 03:28:13;;;;;;;7.25;3.97;;;;;;;;;;5063510;28;20077;-59
2024/03/09 03:30:42;;;;;;;9.43;4.57;;;;;;;;;;5065566;28;20190;-59
2024/03/09 03:33:12;;;;;;;8.52;4.15;;;;;;;;;;5067364;28;20094;-60
2024/03/09 03:35:40;;;;;;;9.18;4.80;;;;;;;;;;5063384;28;20040;-60
2024/03/09 03:38:10;;;;;;;9.15;4.57;;;;;;;;;;5053186;28;20409;-62
2024/03/09 03:40:38;;;;;;;10.70;4.05;;;;;;;;;;5057315;28;20080;-61
2024/03/09 03:43:07;;;;;;;5.72;3.42;;;;;;;;;;5063353;28;20049;-60
2024/03/09 03:45:36;;;;;;;8.77;4.53;;;;;;;;;;5060766;28;20060;-59
2024/03/09 03:48:06;;;;;;;7.85;4.30;;;;;;;;;;5062909;28;20049;-60
2024/03/09 03:50:36;;;;;;;7.25;3.67;;;;;;;;;;5067005;28;20420;-60
2024/03/09 03:53:05;;;;;;;7.03;4.20;;;;;;;;;;5065732;28;20093;-62
2024/03/09 03:55:33;;;;;;;7.57;4.43;;;;;;;;;;5068319;28;20040;-61
2024/03/09 03:58:03;;;;;;;6.97;4.50;;;;;;;;;;5064530;28;20053;-62
2024/03/09 04:00:32;;;;;;;7.03;3.95;;;;;;;;;;5061674;28;20071;-60
2024/03/09 04:03:01;;;;;;;7.85;3.75;;;;;;;;;;5060252;28;20044;-60
2024/03/09 04:05:30;;;;;;;8.00;4.78;;;;;;;;;;5070692;28;20108;-60
2024/03/09 04:08:00;;;;;;;11.25;4.75;;;;;;;;;;5069606;28;20052;-60
2024/03/09 04:10:28;;;;;;;7.53;4.22;;;;;;;;;;5082016;28;20516;-60
2024/03/09 04:12:57;;;;;;;6.88;4.30;;;;;;;;;;5080864;28;20133;-60
2024/03/09 04:15:26;;;;;;;6.43;3.92;;;;;;;;;;5070786;28;20072;-60
2024/03/09 04:17:55;;;;;;;8.95;3.95;;;;;;;;;;5079832;28;20062;-59
2024/03/09 04:20:27;;;;;;;6.95;4.32;;;;;;;;;;5082190;28;20048;-59
2024/03/09 04:22:56;;;;;;;8.93;4.85;;;;;;;;;;5069389;28;20080;-60
2024/03/09 04:25:25;;;;;;;8.07;4.63;;;;;;;;;;5074728;28;20080;-62
2024/03/09 04:27:55;;;;;;;7.43;3.72;;;;;;;;;;5068461;28;20080;-62
2024/03/09 04:30:25;;;;;;;7.13;4.15;;;;;;;;;;5088932;28;20040;-60
2024/03/09 04:32:55;;;;;;;6.60;3.70;;;;;;;;;;5061192;28;20123;-65
2024/03/09 04:35:24;;;;;;;5.88;4.13;;;;;;;;;;5068568;28;20052;-59
2024/03/09 04:37:53;;;;;;;10.60;4.75;;;;;;;;;;5063509;28;20052;-61
2024/03/09 04:40:21;;;;;;;8.65;4.25;;;;;;;;;;5073121;28;20040;-60
2024/03/09 04:42:51;;;;;;;8.23;4.45;;;;;;;;;;5061839;28;20519;-61
2024/03/09 04:45:22;;;;;;;7.03;4.22;;;;;;;;;;5079200;28;20052;-59
2024/03/09 04:47:51;;;;;;;8.98;4.28;;;;;;;;;;5075689;28;20040;-59
2024/03/09 04:50:21;;;;;;;9.30;4.88;;;;;;;;;;5074535;28;20040;-59
2024/03/09 04:52:50;;;;;;;6.95;4.72;;;;;;;;;;5067835;28;20049;-59
2024/03/09 04:55:21;;;;;;;8.35;4.13;;;;;;;;;;5069867;28;20055;-59
2024/03/09 04:57:53;;;;;;;8.30;4.68;;;;;;;;;;5060231;28;20087;-59
2024/03/09 05:00:24;;;;;;;6.40;3.97;;;;;;;;;;5065004;28;20060;-58
2024/03/09 05:02:52;;;;;;;7.85;4.20;;;;;;;;;;5067109;28;20310;-60
2024/03/09 05:05:21;;;;;;;9.65;4.90;;;;;;;;;;5076376;28;20267;-59
2024/03/09 05:07:50;;;;;;;8.20;4.18;;;;;;;;;;5062910;28;20053;-61
2024/03/09 05:10:19;;;;;;;8.23;4.30;;;;;;;;;;5073453;28;20094;-61
2024/03/09 05:12:53;;;;;;;8.20;4.43;;;;;;;;;;5069325;28;20106;-59
2024/03/09 05:15:23;;;;;;;7.90;4.45;;;;;;;;;;5070727;28;20036;-60
2024/03/09 05:17:52;;;;;;;6.28;3.67;;;;;;;;;;5077262;28;20067;-59
2024/03/09 05:20:22;;;;;;;6.45;3.67;;;;;;;;;;5074049;28;20123;-60
2024/03/09 05:22:51;;;;;;;7.07;3.90;;;;;;;;;;5066960;28;20058;-59
2024/03/09 05:25:21;;;;;;;9.10;4.07;;;;;;;;;;5068271;28;20048;-59
2024/03/09 05:27:50;;;;;;;7.35;4.30;;;;;;;;;;5068025;28;20052;-61
2024/03/09 05:30:19;;;;;;;6.28;4.00;;;;;;;;;;5063800;28;20443;-62
2024/03/09 05:32:53;;;;;;;6.50;4.15;;;;;;;;;;5066277;28;20049;-59
2024/03/09 05:35:22;;;;;;;6.22;3.88;;;;;;;;;;5084270;28;20048;-59
2024/03/09 05:37:50;;;;;;;7.38;4.32;;;;;;;;;;5066502;28;20474;-61
2024/03/09 05:40:19;;;;;;;6.95;4.70;;;;;;;;;;5076082;28;20040;-60
2024/03/09 05:42:48;;;;;;;9.60;4.65;;;;;;;;;;5079958;28;20443;-59
2024/03/09 05:45:20;;;;;;;7.05;3.75;;;;;;;;;;5076705;28;20115;-58
2024/03/09 05:47:52;;;;;;;5.65;4.18;;;;;;;;;;5065140;28;20554;-60
2024/03/09 05:50:21;;;;;;;7.35;4.13;;;;;;;;;;5067153;28;20167;-62
2024/03/09 05:52:52;;;;;;;6.88;3.72;;;;;;;;;;5067631;28;20056;-62
2024/03/09 05:55:21;;;;;;;7.90;4.60;;;;;;;;;;5065111;28;20056;-60
2024/03/09 05:57:50;;;;;;;7.18;3.95;;;;;;;;;;5061620;28;20135;-59
2024/03/09 06:00:20;;;;;;;6.63;4.03;;;;;;;;;;5044604;28;20052;-61
2024/03/09 06:02:48;;;;;;;7.18;4.35;;;;;;;;;;5046630;28;20551;-61
2024/03/09 06:05:19;;;;;;;8.70;4.22;;;;;;;;;;5048381;28;20537;-64
2024/03/09 06:07:47;;;;;;;7.90;4.10;;;;;;;;;;5038268;28;20048;-60
2024/03/09 06:10:17;;;;;;;9.10;4.78;;;;;;;;;;5038892;28;20068;-59
2024/03/09 06:12:46;;;;;;;8.55;4.80;;;;;;;;;;5034329;28;20371;-59
2024/03/09 06:15:16;;;;;;;8.05;4.82;;;;;;;;;;5030739;28;20045;-60
2024/03/09 06:17:46;;;;;;;7.47;4.20;;;;;;;;;;5035802;28;20049;-62
2024/03/09 06:20:15;;;;;;;3.72;2.92;;;;;;;;;;5039788;28;20041;-60
2024/03/09 06:22:45;;;;;;;8.48;4.43;;;;;;;;;;5033443;28;20059;-59
2024/03/09 06:25:22;;;;;;;9.77;4.40;;;;;;;;;;5040518;28;20513;-60
2024/03/09 06:27:52;;;;;;;7.47;4.18;;;;;;;;;;5037915;28;20045;-59
2024/03/09 06:30:21;;;;;;;8.93;4.78;;;;;;;;;;5038957;28;20049;-62
2024/03/09 06:32:53;;;;;;;10.20;4.53;;;;;;;;;;5040361;28;20063;-60
2024/03/09 06:35:25;;;;;;;6.55;4.03;;;;;;;;;;5039365;28;20405;-60
2024/03/09 06:37:59;;;;;;;9.23;4.68;;;;;;;;;;5043802;28;20074;-59
2024/03/09 06:40:29;;;;;;;7.50;4.22;;;;;;;;;;5044007;28;20041;-61
2024/03/09 06:42:59;;;;;;;8.57;4.45;;;;;;;;;;5044465;28;20072;-59
2024/03/09 06:45:27;;;;;;;9.30;4.63;;;;;;;;;;5038778;28;20091;-60
2024/03/09 06:47:57;;;;;;;8.30;4.38;;;;;;;;;;5041155;28;20446;-59
2024/03/09 06:50:27;;;;;;;7.70;3.90;;;;;;;;;;5037205;28;20045;-60
2024/03/09 06:52:55;;;;;;;6.78;4.07;;;;;;;;;;5041512;28;20055;-62
2024/03/09 06:55:26;;;;;;;9.73;4.47;;;;;;;;;;5039845;28;20148;-62
2024/03/09 06:57:55;;;;;;;8.10;4.72;;;;;;;;;;5041872;28;20078;-60
2024/03/09 07:00:28;;;;;;;9.02;5.10;;;;;;;;;;5032187;28;20090;-60
2024/03/09 07:02:58;;;;;;;6.85;4.13;;;;;;;;;;5039691;28;20045;-61
2024/03/09 07:05:28;;;;;;;7.75;4.43;;;;;;;;;;5037765;28;20539;-60
2024/03/09 07:07:56;;;;;;;11.02;4.88;;;;;;;;;;5044822;28;20099;-61
2024/03/09 07:10:27;;;;;;;9.57;5.00;;;;;;;;;;5034284;28;20130;-60
2024/03/09 07:12:56;;;;;;;11.93;5.55;;;;;;;;;;5042587;28;20049;-60
2024/03/09 07:15:26;;;;;;;7.57;4.68;;;;;;;;;;5036155;28;20214;-61
2024/03/09 07:17:55;;;;;;;9.63;5.30;;;;;;;;;;5045337;28;20388;-60
2024/03/09 07:20:27;;;;;;;9.80;4.93;;;;;;;;;;5038985;28;20049;-61
2024/03/09 07:22:57;;;;;;;8.23;4.82;;;;;;;;;;5035435;28;20061;-59
2024/03/09 07:25:28;;;;;;;10.55;5.10;;;;;;;;;;5046837;28;20045;-60
2024/03/09 07:27:57;;;;;;;11.48;5.15;;;;;;;;;;5044402;28;20050;-59
2024/03/09 07:30:27;;;;;;;7.93;5.05;;;;;;;;;;5040571;28;20461;-61
2024/03/09 07:32:55;;;;;;;11.13;5.93;;;;;;;;;;5045258;28;20139;-60
2024/03/09 07:35:27;;;;;;;9.32;4.70;;;;;;;;;;5046370;28;20045;-60
2024/03/09 07:37:58;;;;;;;9.55;5.00;;;;;;;;;;5044025;28;20073;-59
2024/03/09 07:40:31;;;;;;;8.48;4.85;;;;;;;;;;5049774;28;20053;-65
2024/03/09 07:43:01;;;;;;;11.48;5.75;;;;;;;;;;5034885;28;20115;-61
2024/03/09 07:45:31;;;;;;;8.43;5.00;;;;;;;;;;5051490;28;20044;-61
2024/03/09 07:48:01;;;;;;;11.10;5.35;;;;;;;;;;5043384;28;20075;-60
2024/03/09 07:50:29;;;;;;;8.90;4.70;;;;;;;;;;5044417;28;20120;-63
2024/03/09 07:52:58;;;;;;;9.95;5.07;;;;;;;;;;5045006;28;20037;-63
2024/03/09 07:55:27;;;;;;;9.07;5.75;;;;;;;;;;5059725;28;20060;-60
2024/03/09 07:57:58;;;;;;;11.02;5.10;;;;;;;;;;5045872;28;20104;-60
2024/03/09 08:00:45;;;;;;;10.98;5.00;;;;;;;;;;5056868;28;20056;-62
2024/03/09 08:03:14;;;;;;;9.02;5.32;;;;;;;;;;5066452;28;20048;-64
2024/03/09 08:05:43;;;;;;;11.10;5.25;;;;;;;;;;5058789;28;20485;-61
2024/03/09 08:08:12;;;;;;;10.00;4.70;;;;;;;;;;5064330;28;20045;-61
2024/03/09 08:10:46;;;;;;;8.30;4.65;;;;;;;;;;5039536;28;20144;-60
2024/03/09 08:13:19;;;;;;;8.93;5.38;;;;;;;;;;5052950;28;20045;-61
2024/03/09 08:15:48;;;;;;;7.28;4.63;;;;;;;;;;5053582;28;20080;-61
2024/03/09 08:18:18;;;;;;;7.95;4.55;;;;;;;;;;5046154;28;20052;-61
2024/03/09 08:20:47;;;;;;;10.43;5.20;;;;;;;;;;5045011;28;20045;-60
2024/03/09 08:23:17;;;;;;;9.48;5.75;;;;;;;;;;5039605;28;20049;-60
2024/03/09 08:25:45;;;;;;;11.75;5.45;;;;;;;;;;5044478;28;20068;-62
2024/03/09 08:28:14;;;;;;;7.13;4.55;;;;;;;;;;5049271;28;20051;-63
2024/03/09 08:30:45;;;;;;;9.07;4.25;;;;;;;;;;5050902;28;20060;-62
2024/03/09 08:33:14;;;;;;;7.85;4.82;;;;;;;;;;5056304;28;20051;-60
2024/03/09 08:35:44;;;;;;;7.38;4.85;;;;;;;;;;5045818;28;20049;-62
2024/03/09 08:38:13;;;;;;;7.90;4.60;;;;;;;;;;5062097;28;20382;-64
2024/03/09 08:40:42;;;;;;;10.07;4.80;;;;;;;;;;5038635;28;20477;-63
2024/03/09 08:43:11;;;;;;;7.70;4.90;;;;;;;;;;5059722;28;20336;-62
2024/03/09 08:45:42;;;;;;;5.47;4.13;;;;;;;;;;5054231;28;20087;-61
2024/03/09 08:48:12;;;;;;;8.30;3.80;;;;;;;;;;5042594;28;20065;-61
2024/03/09 08:50:41;;;;;;;7.18;4.30;;;;;;;;;;5047982;28;20126;-62
2024/03/09 08:53:10;;;;;;;7.30;4.00;;;;;;;;;;5037993;28;20538;-60
2024/03/09 08:55:39;;;;;;;7.10;4.00;;;;;;;;;;5042873;28;20052;-67
2024/03/09 08:58:08;;;;;;;6.28;4.05;;;;;;;;;;5046554;28;20053;-67
2024/03/09 09:00:37;;;;;;;6.72;3.95;;;;;;;;;;5053748;28;20501;-64
2024/03/09 09:03:07;;;;;;;5.85;3.70;;;;;;;;;;5055092;28;20083;-65
2024/03/09 09:05:37;;;;;;;6.25;3.75;;;;;;;;;;5034586;28;20493;-65
2024/03/09 09:08:06;;;;;;;8.30;4.30;;;;;;;;;;5050065;28;20086;-65
2024/03/09 09:10:35;;;;;;;7.03;3.80;;;;;;;;;;5067078;28;20078;-66
2024/03/09 09:13:04;;;;;;;6.40;3.92;;;;;;;;;;5069902;28;20048;-65
2024/03/09 09:15:33;;;;;;;5.45;3.70;;;;;;;;;;5057617;28;20041;-66
2024/03/09 09:18:02;;;;;;;5.93;3.90;;;;;;;;;;5059370;28;20486;-68
2024/03/09 09:20:31;;;;;;;5.55;3.72;;;;;;;;;;5059760;28;20472;-63
2024/03/09 09:23:01;;;;;;;8.32;3.88;;;;;;;;;;5064841;28;20041;-63
2024/03/09 09:25:30;;;;;;;6.78;4.57;;;;;;;;;;5066982;28;20139;-64
2024/03/09 09:28:01;;;;;;;5.95;3.58;;;;;;;;;;5057852;28;20048;-71
2024/03/09 09:30:31;;;;;;;7.00;3.83;;;;;;;;;;5032703;28;20041;-66
2024/03/09 09:32:59;;;;;;;5.85;3.85;;;;;;;;;;5045894;28;20044;-64
2024/03/09 09:35:28;;;;;;;6.15;4.20;;;;;;;;;;5048578;28;20048;-68
2024/03/09 09:37:59;;;;;;;7.00;4.28;;;;;;;;;;5040752;28;20057;-65
2024/03/09 09:40:32;;;;;;;6.55;4.40;;;;;;;;;;5054099;28;20132;-67
2024/03/09 09:43:02;;;;;;;6.63;3.60;;;;;;;;;;5062709;28;20049;-66
2024/03/09 09:45:34;;;;;;;6.57;4.00;;;;;;;;;;5055037;28;20063;-65
2024/03/09 09:48:02;;;;;;;4.75;3.58;;;;;;;;;;5063181;28;20044;-65
2024/03/09 09:50:34;;;;;;;5.68;3.67;;;;;;;;;;5041609;28;20072;-66
2024/03/09 09:53:07;;;;;;;4.85;3.17;;;;;;;;;;5038679;28;20501;-64
2024/03/09 09:55:38;;;;;;;4.80;3.40;;;;;;;;;;5047902;28;20049;-65
2024/03/09 09:58:07;;;;;;;6.03;3.83;;;;;;;;;;5044460;28;20065;-66
2024/03/09 10:00:37;;;;;;;4.88;3.15;;;;;;;;;;5063037;28;20048;-66
2024/03/09 10:03:06;;;;;;;6.88;3.60;;;;;;;;;;5065208;28;20048;-70
2024/03/09 10:05:34;;;;;;;5.68;3.40;;;;;;;;;;5054634;28;20468;-69
2024/03/09 10:08:04;;;;;;;5.85;3.70;;;;;;;;;;5056833;28;20045;-65
2024/03/09 10:10:35;;;;;;;5.22;3.25;;;;;;;;;;5059051;28;20045;-64
2024/03/09 10:13:09;;;;;;;4.25;3.20;;;;;;;;;;5052869;28;20529;-66
2024/03/09 10:15:40;;;;;;;4.45;3.28;;;;;;;;;;5059249;28;20045;-67
2024/03/09 10:18:09;;;;;;;4.18;3.03;;;;;;;;;;5062782;28;20040;-66
2024/03/09 10:20:38;;;;;;;4.38;3.10;;;;;;;;;;5058734;28;20135;-65
2024/03/09 10:23:08;;;;;;;4.47;2.90;;;;;;;;;;5059362;28;20054;-65
2024/03/09 10:25:37;;;;;;;4.88;3.20;;;;;;;;;;5065078;28;20056;-65
2024/03/09 10:28:07;;;;;;;5.47;3.63;;;;;;;;;;5061539;28;20072;-65
2024/03/09 10:30:38;;;;;;;4.85;3.25;;;;;;;;;;5059948;28;20061;-66
2024/03/09 10:33:10;;;;;;;4.70;2.80;;;;;;;;;;5058027;28;20049;-65
2024/03/09 10:35:41;;;;;;;3.95;2.92;;;;;;;;;;5064472;28;20056;-69
2024/03/09 10:38:10;;;;;;;4.10;2.90;;;;;;;;;;5060614;28;20449;-66
2024/03/09 10:40:39;;;;;;;5.10;2.97;;;;;;;;;;5043544;28;20041;-76
2024/03/09 10:43:11;;;;;;;4.07;2.90;;;;;;;;;;5054143;28;20505;-66
2024/03/09 10:45:42;;;;;;;6.43;3.13;;;;;;;;;;5065067;28;20052;-66
2024/03/09 10:48:11;;;;;;;5.55;3.03;;;;;;;;;;5059479;28;20048;-66
2024/03/09 10:50:43;;;;;;;4.75;2.80;;;;;;;;;;5060848;28;20464;-66
2024/03/09 10:53:18;;;;;;;4.43;2.75;;;;;;;;;;5049791;28;20504;-68
2024/03/09 10:55:48;;;;;;;;;;;;;;;;;;5061229;28;20128;-67
2024/03/09 10:58:17;;;;;;;6.00;3.22;;;;;;;;;;5056264;28;19974;-64
2024/03/09 11:00:49;;;;;;;3.25;2.60;;;;;;;;;;5060754;28;20047;-64
2024/03/09 11:03:20;;;;;;;3.67;3.00;;;;;;;;;;5062471;28;20513;-64
2024/03/09 11:05:53;;;;;;;6.30;3.13;;;;;;;;;;5058940;28;20052;-71
2024/03/09 11:08:22;;;;;;;4.22;3.05;;;;;;;;;;5045558;28;20045;-64
2024/03/09 11:10:51;;;;;;;4.03;2.92;;;;;;;;;;5077993;28;20048;-65
2024/03/09 11:13:19;;;;;;;4.38;2.63;;;;;;;;;;5079479;28;20048;-64
2024/03/09 11:15:51;;;;;;;3.88;2.72;;;;;;;;;;5070149;28;20052;-69
2024/03/09 11:18:22;;;;;;;3.45;2.58;;;;;;;;;;5070194;28;20048;-67
2024/03/09 11:20:54;;;;;;;4.18;2.80;;;;;;;;;;5071739;28;20067;-63
2024/03/09 11:23:25;;;;;;;3.35;2.30;;;;;;;;;;5078433;28;20497;-65
2024/03/09 11:25:55;;;;;;;4.55;2.50;;;;;;;;;;5073539;28;20117;-67
2024/03/09 11:28:27;;;;;;;4.47;2.78;;;;;;;;;;5074288;28;20052;-68
2024/03/09 11:31:10;;;;;;;5.07;2.70;;;;;;;;;;5072422;28;20047;-64
2024/03/09 11:33:45;;;;;;;3.00;2.35;;;;;;;;;;5077858;28;20048;-65
2024/03/09 11:36:38;;;;;;;3.03;2.50;;;;;;;;;;5076340;28;20067;-68
2024/03/09 11:39:06;;;;;;;4.13;2.50;;;;;;;;;;5062433;28;20071;-68
2024/03/09 11:41:36;;;;;;;3.25;2.50;;;;;;;;;;5074475;28;20303;-65
2024/03/09 11:44:05;;;;;;;4.00;2.22;;;;;;;;;;5065642;28;20519;-66
2024/03/09 11:46:36;;;;;;;4.30;2.10;;;;;;;;;;5056227;28;20075;-69
2024/03/09 11:49:04;;;;;;;3.15;2.22;;;;;;;;;;5055578;28;20417;-70
2024/03/09 11:51:34;;;;;;;2.90;2.05;;;;;;;;;;5057559;28;20102;-72
2024/03/09 11:54:04;;;;;;;2.42;1.88;;;;;;;;;;5049637;28;20466;-66
2024/03/09 11:56:32;;;;;;;2.28;1.90;;;;;;;;;;5057156;28;20135;-65
2024/03/09 11:59:01;;;;;;;2.97;1.90;;;;;;;;;;5051410;28;20397;-68
2024/03/09 12:01:30;;;;;;;3.25;2.22;;;;;;;;;;5062222;28;20480;-69
2024/03/09 12:04:00;;;;;;;2.08;1.83;;;;;;;;;;5061120;28;20037;-67
2024/03/09 12:06:31;;;;;;;2.50;2.00;;;;;;;;;;5057926;28;20098;-65
2024/03/09 12:09:00;;;;;;;2.55;1.88;;;;;;;;;;5054492;28;20048;-65
2024/03/09 12:11:30;;;;;;;2.05;1.77;;;;;;;;;;5053598;28;20068;-73
2024/03/09 12:13:59;;;;;;;2.25;1.75;;;;;;;;;;5052216;28;20047;-69
2024/03/09 12:16:28;;;;;;;2.97;2.00;;;;;;;;;;5060069;28;20646;-65
2024/03/09 12:18:58;;;;;;;3.80;2.15;;;;;;;;;;5072107;28;20504;-65
2024/03/09 12:21:28;;;;;;;4.00;2.00;;;;;;;;;;5071600;28;20045;-66
2024/03/09 12:23:58;;;;;;;3.17;2.20;;;;;;;;;;5081597;28;20465;-74
2024/03/09 12:26:27;;;;;;;2.78;2.10;;;;;;;;;;5080659;28;20049;-70
2024/03/09 12:29:03;;;;;;;3.92;2.10;;;;;;;;;;5069726;28;20055;-65
2024/03/09 12:31:33;;;;;;;3.47;2.10;;;;;;;;;;5079206;28;20048;-65
2024/03/09 12:34:01;;;;;;;2.78;2.03;;;;;;;;;;5070152;28;20052;-65
2024/03/09 12:36:34;;;;;;;2.67;1.92;;;;;;;;;;5081817;28;20067;-67
2024/03/09 12:39:15;;;;;;;3.03;1.60;;;;;;;;;;5078713;28;20084;-67
2024/03/09 12:41:45;;;;;;;1.85;1.60;;;;;;;;;;5079863;28;20493;-68
2024/03/09 12:44:13;;;;;;;2.50;1.73;;;;;;;;;;5061706;28;20045;-66
2024/03/09 12:46:43;;;;;;;3.00;1.88;;;;;;;;;;5079946;28;20048;-65
2024/03/09 12:49:12;;;;;;;2.33;1.77;;;;;;;;;;5069582;28;20072;-68
2024/03/09 12:51:42;;;;;;;2.40;1.73;;;;;;;;;;5078470;28;20102;-68
2024/03/09 12:54:12;;;;;;;2.35;1.77;;;;;;;;;;5080824;28;20094;-67
2024/03/09 12:56:42;;;;;;;2.30;1.60;;;;;;;;;;5078510;28;20386;-67
2024/03/09 12:59:20;;;;;;;4.18;1.67;;;;;;;;;;5081757;28;20040;-65
2024/03/09 13:01:50;;;;;;;1.63;1.20;;;;;;;;;;5070008;28;20032;-69
2024/03/09 13:04:23;;;;;;;1.65;1.48;;;;;;;;;;5073892;28;20455;-64
2024/03/09 13:06:57;;;;;;;1.55;1.40;;;;;;;;;;5076692;28;20044;-65
2024/03/09 13:09:30;;;;;;;2.38;1.80;;;;;;;;;;5078705;28;20051;-66
2024/03/09 13:12:03;;;;;;;2.33;1.60;;;;;;;;;;5070566;28;20051;-65
2024/03/09 13:14:36;;;;;;;3.80;1.58;;;;;;;;;;5085546;28;20059;-65
2024/03/09 13:17:06;;;;;;;2.03;1.77;;;;;;;;;;5063191;28;20414;-65
2024/03/09 13:19:36;;;;;;;2.25;1.50;;;;;;;;;;5084895;28;20047;-64
2024/03/09 13:22:08;;;;;;;1.42;1.33;;;;;;;;;;5076211;28;20139;-69
2024/03/09 13:24:36;;;;;;;1.85;1.50;;;;;;;;;;5079733;28;20110;-71
2024/03/09 13:27:07;;;;;;;1.80;1.40;;;;;;;;;;5080507;28;20048;-68
2024/03/09 13:29:37;;;;;;;1.50;1.40;;;;;;;;;;5077579;28;20575;-65
2024/03/09 13:32:15;;;;;;;1.80;1.52;;;;;;;;;;5075454;28;20102;-67
2024/03/09 13:34:45;;;;;;;1.30;1.08;;;;;;;;;;5079566;28;20505;-67
2024/03/09 13:37:17;;;;;;;2.28;1.52;;;;;;;;;;5080252;28;20048;-68
2024/03/09 13:39:46;;;;;;;2.17;1.88;;;;;;;;;;5081088;28;20079;-67
2024/03/09 13:42:15;;;;;;;2.10;1.85;;;;;;;;;;5065633;28;20064;-69
2024/03/09 13:44:45;;;;;;;2.25;1.80;;;;;;;;;;5073757;28;20047;-66
2024/03/09 13:47:14;;;;;;;4.07;2.20;;;;;;;;;;5084216;28;20532;-65
2024/03/09 13:49:45;;;;;;;2.95;2.20;;;;;;;;;;5083388;28;20056;-68
2024/03/09 13:52:13;;;;;;;2.58;2.00;;;;;;;;;;5081269;28;20147;-65
2024/03/09 13:54:44;;;;;;;4.93;2.00;;;;;;;;;;5083462;28;20052;-65
2024/03/09 13:57:14;;;;;;;2.67;1.83;;;;;;;;;;5081468;28;20056;-70
2024/03/09 13:59:43;;;;;;;2.33;1.80;;;;;;;;;;5080511;28;20172;-70
2024/03/09 14:02:13;;;;;;;3.17;2.17;;;;;;;;;;5066306;28;20051;-74
2024/03/09 14:04:42;;;;;;;3.15;1.92;;;;;;;;;;5086527;28;20524;-65
2024/03/09 14:07:12;;;;;;;2.80;1.73;;;;;;;;;;5074155;28;20082;-67
2024/03/09 14:09:48;;;;;;;2.00;1.80;;;;;;;;;;5070674;28;20541;-66
2024/03/09 14:12:21;;;;;;;2.45;1.77;;;;;;;;;;5073752;28;20049;-67
2024/03/09 14:14:53;;;;;;;3.33;1.77;;;;;;;;;;5080840;28;20048;-64
2024/03/09 14:17:22;;;;;;;2.70;1.92;;;;;;;;;;5072704;28;20044;-64
2024/03/09 14:19:51;;;;;;;4.03;2.22;;;;;;;;;;5082611;28;20048;-70
2024/03/09 14:22:22;;;;;;;2.72;2.20;;;;;;;;;;5074478;28;20044;-69
2024/03/09 14:24:57;;;;;;;3.88;2.13;;;;;;;;;;5081760;28;20101;-70
2024/03/09 14:27:29;;;;;;;3.47;2.28;;;;;;;;;;5062965;28;20057;-64
2024/03/09 14:29:59;;;;;;;2.97;1.80;;;;;;;;;;5077345;28;20072;-64
2024/03/09 14:32:36;;;;;;;2.05;1.83;;;;;;;;;;5071498;28;20060;-68
2024/03/09 14:35:13;;;;;;;2.70;1.95;;;;;;;;;;5075983;28;20063;-67
2024/03/09 14:37:48;;;;;;;3.88;2.03;;;;;;;;;;5074770;28;20497;-65
2024/03/09 14:40:17;;;;;;;3.25;2.25;;;;;;;;;;5070520;28;20405;-66
2024/03/09 14:42:48;;;;;;;2.92;1.85;;;;;;;;;;5074759;28;20524;-68
2024/03/09 14:45:21;;;;;;;3.17;2.00;;;;;;;;;;5067874;28;20138;-67
2024/03/09 14:47:52;;;;;;;2.63;2.17;;;;;;;;;;5079238;28;20167;-64
2024/03/09 14:50:22;;;;;;;2.92;1.95;;;;;;;;;;5082101;28;20043;-65
2024/03/09 14:52:53;;;;;;;2.38;2.00;;;;;;;;;;5073551;28;20067;-75
2024/03/09 14:55:25;;;;;;;3.35;2.10;;;;;;;;;;5058877;28;20059;-66
2024/03/09 14:57:55;;;;;;;3.15;2.20;;;;;;;;;;5053980;28;20572;-68
2024/03/09 15:03:13;;;;;;;2.55;1.88;;;;;;;;;;5052055;28;20049;-69
2024/03/09 15:05:41;;;;;;;3.80;2.25;;;;;;;;;;5055462;28;20045;-70